RKJK/KUV METAR and TAF weather

Enter ICAO airport designator
Station Type Date Time Source
RKJK METAR 2019/12/05 21:56 UTC NOAA

RKJK 052156Z AUTO 07004KT 10SM CLR M06/M09 A3065 RMK AO2 SLP384 T10651092 $


Station Type Date Time Source
RKJK Decoded METAR 2019/12/05 21:56 UTC NOAA

Kunsan Ab, Korea, South (RKJK) 35-55N 126-37E 10M
Dec 05, 2019 - 04:56 PM EST / 2019.12.05 2156 UTC
Wind: from the ENE (070 degrees) at 5 MPH (4 KT):0
Visibility: 10 mile(s):0
Sky conditions: clear
Temperature: 20.3 F (-6.5 C)
Windchill: 14 F (-10 C):1
Dew Point: 15.4 F (-9.2 C)
Relative Humidity: 81%
Pressure (altimeter): 30.65 in. Hg (1037 hPa)
ob: RKJK 052156Z AUTO 07004KT 10SM CLR M06/M09 A3065 RMK AO2 SLP384 T10651092
cycle: 22

Station Type Date Time Source
RKJK TAF 2019/12/05 15:12 UTC NOAA

TAF RKJK 051500Z 0515/0621 35009KT 9999 SCT025 QNH3060INS
BECMG 0611/0612 36009KT 9999 BKN025 620252 QNH3055INS
BECMG 0617/0618 VRB06KT 9999 OVC025 620252 QNH3044INS TX03/0605Z TNM05/0518Z

Example: see airport list